Time;durP1;ratioP1;P1;durP2;ratioP2;P2;SDS_P1;SDS_P2;PMS_P1;PMS_P2;Temp;Humidity;BMP_temperature;BMP_pressure;BME280_temperature;BME280_humidity;BME280_pressure;Samples;Min_cycle;Max_cycle;Signal;HPM_P1;HPM_P2
2021/12/17 00:00:18;;;;;;;11.40;7.25;;;;;;;4.39;100.00;100744.66;4139146;28;20447;-71
2021/12/17 00:06:47;;;;;;;10.70;7.75;;;;;;;4.28;100.00;100740.31;4138811;28;20053;-71
2021/12/17 00:08:49;;;;;;;;;;;;;;;4.25;100.00;100736.22;4137907;28;20049;-71
2021/12/17 00:10:51;;;;;;;12.57;7.25;;;;;;;4.18;100.00;100728.28;4138824;28;20267;-71
2021/12/17 00:12:52;;;;;;;11.75;7.47;;;;;;;4.16;100.00;100735.97;4139033;28;20119;-71
2021/12/17 00:14:52;;;;;;;13.45;8.10;;;;;;;4.09;100.00;100723.69;4138896;28;20053;-71
2021/12/17 00:16:59;;;;;;;11.70;7.20;;;;;;;4.03;100.00;100725.63;4138020;28;20057;-71
2021/12/17 00:48:55;;;;;;;12.35;6.93;;;;;;;3.34;100.00;100677.09;4138216;28;20100;-71
2021/12/17 00:51:30;;;;;;;10.07;7.22;;;;;;;3.32;100.00;100676.56;4138353;28;20072;-71
2021/12/17 00:53:25;;;;;;;12.20;7.10;;;;;;;3.27;100.00;100680.09;4138268;28;20053;-71
2021/12/17 00:55:25;;;;;;;11.60;6.72;;;;;;;3.20;100.00;100668.63;4137975;28;20056;-71
2021/12/17 00:57:30;;;;;;;10.98;6.60;;;;;;;3.23;100.00;100681.78;4137350;28;20494;-71
2021/12/17 00:59:31;;;;;;;11.27;7.22;;;;;;;3.20;100.00;100678.75;4138161;28;20229;-71
2021/12/17 01:01:32;;;;;;;11.07;6.63;;;;;;;3.13;100.00;100672.72;4138060;28;20046;-71
2021/12/17 01:03:32;;;;;;;10.63;7.03;;;;;;;3.05;100.00;100672.19;4137692;28;20249;-71
2021/12/17 01:05:33;;;;;;;11.15;6.63;;;;;;;3.03;100.00;100668.09;4137998;28;20049;-71
2021/12/17 01:07:36;;;;;;;10.90;7.05;;;;;;;3.00;100.00;100665.91;4137237;28;20060;-71
2021/12/17 01:09:37;;;;;;;11.82;7.53;;;;;;;2.97;100.00;100663.72;4138357;28;20042;-71
2021/12/17 01:11:37;;;;;;;10.80;6.30;;;;;;;2.92;100.00;100666.47;4137856;28;20495;-71
2021/12/17 01:13:41;;;;;;;10.85;6.65;;;;;;;2.90;100.00;100668.66;4137854;28;20060;-71
2021/12/17 01:15:42;;;;;;;11.57;6.72;;;;;;;2.86;100.00;100667.56;4137442;28;20065;-71
2021/12/17 01:17:45;;;;;;;11.23;6.83;;;;;;;2.83;100.00;100663.47;4137278;28;20078;-71
2021/12/17 01:42:07;;;;;;;11.95;6.85;;;;;;;2.38;100.00;100673.25;4134755;28;20144;-71
2021/12/17 01:44:09;;;;;;;14.70;7.40;;;;;;;2.31;100.00;100680.88;4135521;28;20041;-71
2021/12/17 01:46:19;;;;;;;11.15;6.97;;;;;;;2.24;100.00;100666.69;4136612;28;20365;-71
2021/12/17 01:48:27;;;;;;;10.70;6.43;;;;;;;2.21;100.00;100680.84;4136946;28;20481;-71
2021/12/17 01:59:37;;;;;;;10.75;5.90;;;;;;;1.54;100.00;100684.41;4136855;28;20502;-71
2021/12/17 02:01:38;;;;;;;11.50;7.15;;;;;;;1.45;100.00;100686.00;4137097;28;20324;-71
2021/12/17 02:03:39;;;;;;;10.27;6.25;;;;;;;1.45;100.00;100673.19;4137044;28;20053;-71
2021/12/17 02:05:39;;;;;;;10.45;6.75;;;;;;;1.44;100.00;100676.19;4137634;28;20263;-71
2021/12/17 02:07:41;;;;;;;11.75;7.10;;;;;;;1.44;100.00;100678.91;4136165;28;20050;-71
2021/12/17 02:10:18;;;;;;;12.18;7.25;;;;;;;1.42;100.00;100681.09;4137274;28;20046;-71
2021/12/17 02:12:25;;;;;;;;;;;;;;;1.40;100.00;100682.13;4137174;28;20537;-71
2021/12/17 02:21:50;;;;;;;11.95;7.22;;;;;;;1.09;100.00;100669.41;4136990;28;20543;-71
2021/12/17 02:28:45;;;;;;;14.30;7.65;;;;;;;1.24;100.00;100672.25;4136291;28;20053;-71
2021/12/17 02:31:13;;;;;;;14.27;7.57;;;;;;;1.28;100.00;100678.00;4136906;28;20494;-71
2021/12/17 02:33:14;;;;;;;15.98;8.55;;;;;;;1.28;100.00;100676.09;4136703;28;20042;-71
2021/12/17 02:37:19;;;;;;;17.77;8.93;;;;;;;1.31;100.00;100663.81;4135890;28;20038;-71
2021/12/17 02:46:01;;;;;;;16.10;8.45;;;;;;;1.31;100.00;100663.81;4136445;28;20529;-71
2021/12/17 02:48:09;;;;;;;15.70;8.57;;;;;;;1.36;100.00;100667.41;4135701;28;20038;-71
2021/12/17 02:50:11;;;;;;;15.75;8.75;;;;;;;1.38;100.00;100658.94;4136573;28;20038;-71
2021/12/17 02:52:12;;;;;;;20.50;10.77;;;;;;;1.46;100.00;100650.25;4136510;28;20708;-71
2021/12/17 02:54:13;;;;;;;18.10;10.30;;;;;;;1.43;100.00;100641.81;4136892;28;20046;-71
2021/12/17 02:56:14;;;;;;;16.30;9.30;;;;;;;1.44;100.00;100641.53;4136749;28;20030;-71
2021/12/17 02:58:15;;;;;;;15.80;8.98;;;;;;;1.42;100.00;100648.34;4135584;28;20066;-71
2021/12/17 03:00:17;;;;;;;17.70;9.43;;;;;;;1.41;100.00;100642.06;4136867;28;20037;-71
2021/12/17 03:02:18;;;;;;;16.33;9.55;;;;;;;1.33;100.00;100645.31;4136433;28;20109;-71
2021/12/17 03:04:20;;;;;;;15.55;8.82;;;;;;;1.40;100.00;100652.13;4136923;28;20053;-71
2021/12/17 03:06:21;;;;;;;16.00;8.88;;;;;;;1.34;100.00;100645.03;4136159;28;20518;-71
2021/12/17 03:08:21;;;;;;;15.90;8.30;;;;;;;1.33;100.00;100654.31;4135987;28;20053;-71
2021/12/17 03:10:23;;;;;;;16.58;9.10;;;;;;;1.31;100.00;100656.44;4136751;28;20385;-71
2021/12/17 03:12:31;;;;;;;16.23;8.43;;;;;;;1.31;100.00;100647.44;4135938;28;20050;-71
2021/12/17 03:14:38;;;;;;;15.55;9.00;;;;;;;1.26;100.00;100647.44;4136668;28;20046;-71
2021/12/17 03:16:53;;;;;;;12.50;7.82;;;;;;;1.22;100.00;100638.94;4135735;28;20520;-71
2021/12/17 03:19:02;;;;;;;13.50;8.30;;;;;;;1.19;100.00;100641.38;4136885;28;20049;-71
2021/12/17 03:23:55;;;;;;;14.55;8.82;;;;;;;1.11;100.00;100659.88;4135021;28;20088;-71
2021/12/17 03:25:49;;;;;;;16.17;8.70;;;;;;;1.05;100.00;100652.75;4133909;28;20082;-71
2021/12/17 03:27:49;;;;;;;13.40;8.43;;;;;;;1.06;100.00;100653.56;4135096;28;20042;-71
2021/12/17 03:29:49;;;;;;;16.05;8.90;;;;;;;1.05;100.00;100651.94;4136639;28;20165;-71
2021/12/17 03:31:50;;;;;;;15.43;7.75;;;;;;;1.04;100.00;100651.09;4136185;28;20054;-71
2021/12/17 03:34:01;;;;;;;18.02;9.10;;;;;;;1.01;100.00;100648.91;4136273;28;20056;-70
2021/12/17 03:36:02;;;;;;;14.63;8.38;;;;;;;1.04;100.00;100648.38;4136093;28;20053;-71
2021/12/17 03:38:03;;;;;;;15.20;8.38;;;;;;;1.05;100.00;100654.66;4135134;28;20029;-71
2021/12/17 03:40:04;;;;;;;18.50;9.38;;;;;;;1.04;100.00;100651.09;4136266;28;20076;-71
2021/12/17 03:42:07;;;;;;;16.10;8.82;;;;;;;1.04;100.00;100645.66;4135813;28;20069;-71
2021/12/17 03:44:08;;;;;;;16.42;9.25;;;;;;;1.02;100.00;100656.00;4137277;28;20037;-71
2021/12/17 03:46:09;;;;;;;20.52;11.20;;;;;;;0.98;100.00;100652.16;4138901;28;20064;-71
2021/12/17 03:48:09;;;;;;;19.92;10.95;;;;;;;1.03;100.00;100654.91;4138773;28;20038;-71
2021/12/17 03:50:10;;;;;;;22.00;11.43;;;;;;;1.03;100.00;100665.81;4139500;28;20034;-71
2021/12/17 03:52:10;;;;;;;20.85;11.35;;;;;;;1.05;100.00;100671.00;4139256;28;20510;-71
2021/12/17 03:54:11;;;;;;;20.45;10.27;;;;;;;1.03;100.00;100667.72;4139294;28;20403;-71
2021/12/17 03:56:11;;;;;;;20.88;10.25;;;;;;;1.00;100.00;100663.63;4139085;28;20418;-71
2021/12/17 03:58:11;;;;;;;13.27;8.48;;;;;;;1.05;100.00;100666.38;4138280;28;20034;-71
2021/12/17 04:00:13;;;;;;;15.48;7.60;;;;;;;1.04;100.00;100666.66;4139332;28;20896;-71
2021/12/17 04:02:14;;;;;;;12.93;7.53;;;;;;;1.02;100.00;100671.53;4137179;28;20112;-71
2021/12/17 04:04:14;;;;;;;13.48;7.22;;;;;;;1.03;100.00;100659.56;4136789;28;20092;-71
2021/12/17 04:06:14;;;;;;;16.08;8.38;;;;;;;1.06;100.00;100665.28;4137599;28;20033;-71
2021/12/17 04:08:15;;;;;;;13.93;7.68;;;;;;;1.07;100.00;100664.19;4137464;28;20471;-71
2021/12/17 04:10:18;;;;;;;14.43;8.32;;;;;;;1.09;100.00;100666.69;4137563;28;20034;-71
2021/12/17 04:12:22;;;;;;;14.15;7.55;;;;;;;1.14;100.00;100677.63;4138016;28;20170;-71
2021/12/17 04:14:32;;;;;;;13.25;8.45;;;;;;;1.17;100.00;100679.00;4138009;28;20479;-71
2021/12/17 04:16:34;;;;;;;15.15;7.97;;;;;;;1.21;100.00;100680.13;4136959;28;20479;-71
2021/12/17 04:18:38;;;;;;;14.57;7.95;;;;;;;1.14;100.00;100680.34;4137561;28;20052;-71
2021/12/17 04:20:38;;;;;;;10.45;6.97;;;;;;;1.08;100.00;100679.50;4137707;28;20042;-71
2021/12/17 04:22:39;;;;;;;15.68;8.23;;;;;;;1.11;100.00;100698.06;4137981;28;20679;-71
2021/12/17 04:24:39;;;;;;;12.18;7.72;;;;;;;1.08;100.00;100697.75;4137203;28;20056;-71
2021/12/17 04:26:40;;;;;;;15.93;7.82;;;;;;;1.12;100.00;100702.41;4136862;28;20502;-72
2021/12/17 04:28:46;;;;;;;15.32;8.35;;;;;;;1.07;100.00;100699.63;4137430;28;20365;-71
2021/12/17 04:30:47;;;;;;;13.50;7.63;;;;;;;1.06;100.00;100698.00;4137241;28;20038;-71
2021/12/17 04:32:48;;;;;;;13.27;7.68;;;;;;;1.02;100.00;100698.81;4137529;28;20132;-71
2021/12/17 04:34:49;;;;;;;13.98;7.82;;;;;;;1.03;100.00;100706.72;4137425;28;20626;-71
2021/12/17 04:36:53;;;;;;;13.35;7.72;;;;;;;0.96;100.00;100708.84;4137015;28;20052;-71
2021/12/17 04:38:54;;;;;;;15.20;7.90;;;;;;;0.94;100.00;100723.81;4137536;28;20069;-71
2021/12/17 04:40:57;;;;;;;12.82;7.53;;;;;;;0.89;100.00;100724.59;4136937;28;20583;-71
2021/12/17 04:43:11;;;;;;;14.07;7.43;;;;;;;0.93;100.00;100728.44;4137315;28;20358;-71
2021/12/17 04:45:11;;;;;;;13.43;8.48;;;;;;;0.94;100.00;100727.38;4136522;28;20406;-71
2021/12/17 04:58:31;;;;;;;17.50;10.43;;;;;;;0.83;100.00;100721.00;4137542;28;20045;-71
2021/12/17 05:00:31;;;;;;;14.88;8.63;;;;;;;0.88;100.00;100720.22;4137876;28;20042;-72
2021/12/17 05:02:37;;;;;;;17.92;9.02;;;;;;;0.91;100.00;100721.59;4138408;28;20075;-71
2021/12/17 05:04:37;;;;;;;18.48;10.68;;;;;;;0.93;100.00;100719.44;4138116;28;20050;-71
2021/12/17 05:06:38;;;;;;;20.85;10.82;;;;;;;0.89;100.00;100700.03;4135956;28;20200;-71
2021/12/17 05:08:38;;;;;;;19.35;11.18;;;;;;;0.93;100.00;100701.19;4128911;28;20043;-71
2021/12/17 05:19:50;;;;;;;18.70;10.45;;;;;;;1.20;100.00;100708.47;4133835;28;20412;-71
2021/12/17 05:21:50;;;;;;;19.45;10.02;;;;;;;1.27;100.00;100707.16;4133798;28;20144;-71
2021/12/17 05:23:52;;;;;;;16.45;9.77;;;;;;;1.24;100.00;100696.78;4134677;28;20069;-71
2021/12/17 05:25:53;;;;;;;18.87;10.10;;;;;;;1.25;100.00;100692.97;4136959;28;20495;-71
2021/12/17 05:27:59;;;;;;;17.50;9.65;;;;;;;1.25;100.00;100692.16;4137017;28;20669;-71
2021/12/17 05:30:00;;;;;;;17.45;9.10;;;;;;;1.29;100.00;100694.09;4137291;28;20045;-71
2021/12/17 05:32:00;;;;;;;17.83;8.70;;;;;;;1.31;100.00;100699.28;4136976;28;20069;-71
2021/12/17 05:34:01;;;;;;;15.93;9.25;;;;;;;1.35;100.00;100703.94;4136276;28;20042;-71
2021/12/17 05:36:02;;;;;;;17.05;8.77;;;;;;;1.40;100.00;100719.50;4136798;28;20060;-71
2021/12/17 05:38:02;;;;;;;14.68;8.63;;;;;;;1.36;100.00;100715.69;4135819;28;20030;-71
2021/12/17 05:40:03;;;;;;;15.00;8.15;;;;;;;1.35;100.00;100720.31;4136684;28;20588;-71
2021/12/17 05:42:04;;;;;;;15.50;8.82;;;;;;;1.33;100.00;100718.94;4136622;28;20034;-71
2021/12/17 05:44:04;;;;;;;13.95;8.70;;;;;;;1.34;100.00;100723.31;4136636;28;20034;-71
2021/12/17 05:46:12;;;;;;;11.40;7.05;;;;;;;1.23;100.00;100718.84;4135526;28;20054;-71
2021/12/17 05:48:12;;;;;;;16.60;8.60;;;;;;;1.15;100.00;100717.44;4135825;28;20030;-71
2021/12/17 05:50:13;;;;;;;13.60;7.90;;;;;;;1.09;100.00;100719.31;4136599;28;20060;-71
2021/12/17 05:52:13;;;;;;;12.63;7.13;;;;;;;1.06;100.00;100721.72;4136526;28;20038;-71
2021/12/17 05:54:15;;;;;;;14.77;8.50;;;;;;;1.06;100.00;100725.25;4136496;28;20497;-71
2021/12/17 05:56:15;;;;;;;15.00;8.52;;;;;;;1.10;100.00;100722.84;4136803;28;20360;-71
2021/12/17 05:58:16;;;;;;;17.63;10.60;;;;;;;1.16;100.00;100710.06;4132247;28;20096;-71
2021/12/17 06:00:17;;;;;;;16.58;9.65;;;;;;;1.19;100.00;100717.75;4134008;28;20096;-71
2021/12/17 06:02:19;;;;;;;17.98;9.48;;;;;;;1.22;100.00;100711.75;4136340;28;20034;-71
2021/12/17 06:04:19;;;;;;;19.42;9.27;;;;;;;1.24;100.00;100704.13;4136959;28;20037;-71
2021/12/17 06:06:34;;;;;;;17.85;9.00;;;;;;;1.30;100.00;100714.00;4136306;28;20048;-71
2021/12/17 06:08:35;;;;;;;16.60;9.68;;;;;;;1.30;100.00;100701.19;4136029;28;20046;-71
2021/12/17 06:10:36;;;;;;;14.95;8.73;;;;;;;1.35;100.00;100703.13;4136177;28;20064;-71
2021/12/17 06:12:40;;;;;;;16.38;8.25;;;;;;;1.38;100.00;100702.59;4136221;28;20064;-71
2021/12/17 06:14:40;;;;;;;15.05;9.07;;;;;;;1.40;100.00;100701.22;4136162;28;20104;-71
2021/12/17 06:16:40;;;;;;;15.65;8.88;;;;;;;1.45;100.00;100702.38;4135503;28;20049;-71
2021/12/17 06:18:41;;;;;;;16.20;10.50;;;;;;;1.49;100.00;100704.31;4136110;28;20038;-71
2021/12/17 06:20:41;;;;;;;21.38;12.18;;;;;;;1.52;100.00;100708.41;4136071;28;20100;-71
2021/12/17 06:22:42;;;;;;;17.75;10.80;;;;;;;1.50;100.00;100707.88;4135922;28;20201;-71
2021/12/17 06:24:44;;;;;;;19.35;11.23;;;;;;;1.50;100.00;100716.88;4126774;28;69584;-71
2021/12/17 06:26:44;;;;;;;;;;;;;;;1.53;100.00;100707.31;4152858;28;20297;-71
2021/12/17 06:28:49;;;;;;;15.27;9.55;;;;;;;1.49;100.00;100701.59;4145953;28;19921;-71
2021/12/17 06:30:50;;;;;;;17.92;10.45;;;;;;;1.52;100.00;100711.97;4135878;28;20046;-71
2021/12/17 06:32:50;;;;;;;19.92;12.23;;;;;;;1.57;100.00;100720.19;4135665;28;20116;-71
2021/12/17 06:34:51;;;;;;;20.60;12.10;;;;;;;1.58;100.00;100715.56;4135695;28;20874;-71
2021/12/17 06:36:51;;;;;;;16.92;10.60;;;;;;;1.58;100.00;100721.84;4135006;28;20072;-71
2021/12/17 06:38:52;;;;;;;16.33;10.30;;;;;;;1.59;100.00;100715.28;4135112;28;20456;-71
2021/12/17 06:40:53;;;;;;;17.35;9.13;;;;;;;1.59;100.00;100709.81;4135198;28;20364;-71
2021/12/17 06:42:54;;;;;;;14.95;8.45;;;;;;;1.60;100.00;100705.19;4136294;28;20368;-71
2021/12/17 06:44:59;;;;;;;11.75;7.53;;;;;;;1.60;100.00;100695.09;4136174;28;20106;-71
2021/12/17 06:47:25;;;;;;;13.02;7.03;;;;;;;1.58;100.00;100696.44;4134366;28;20089;-71
2021/12/17 06:49:45;;;;;;;18.42;8.82;;;;;;;1.60;100.00;100700.56;4135936;28;20046;-71
2021/12/17 06:58:54;;;;;;;12.23;7.70;;;;;;;1.71;100.00;100708.78;4134482;28;20042;-71
2021/12/17 07:08:38;;;;;;;13.68;8.32;;;;;;;1.82;100.00;100718.66;4134691;28;20080;-71
2021/12/17 07:17:11;;;;;;;12.75;7.30;;;;;;;1.84;100.00;100721.97;4134958;28;20514;-71
2021/12/17 07:21:19;;;;;;;16.70;8.50;;;;;;;1.90;100.00;100719.00;4137233;28;20458;-71
2021/12/17 07:23:50;;;;;;;12.43;7.43;;;;;;;1.93;100.00;100720.38;4138884;28;20062;-71
2021/12/17 07:30:34;;;;;;;13.38;8.10;;;;;;;1.97;100.00;100724.19;4136839;28;20056;-71
2021/12/17 07:39:02;;;;;;;15.45;9.02;;;;;;;2.06;100.00;100732.69;4139051;28;20038;-71
2021/12/17 07:41:03;;;;;;;13.43;8.13;;;;;;;2.08;100.00;100731.34;4138781;28;20128;-71
2021/12/17 07:43:11;;;;;;;18.52;11.23;;;;;;;2.09;100.00;100721.25;4138149;28;20484;-71
2021/12/17 07:45:11;;;;;;;18.73;9.90;;;;;;;2.10;100.00;100715.50;4139191;28;20078;-71
2021/12/17 07:47:12;;;;;;;14.55;8.32;;;;;;;2.09;100.00;100718.53;4137758;28;20054;-71
2021/12/17 07:49:12;;;;;;;17.60;9.40;;;;;;;2.13;100.00;100722.34;4138630;28;20380;-71
2021/12/17 07:51:15;;;;;;;24.60;14.90;;;;;;;2.16;100.00;100730.03;4137493;28;20044;-71
2021/12/17 07:53:16;;;;;;;17.00;10.77;;;;;;;2.16;100.00;100728.13;4138846;28;20046;-71
2021/12/17 07:55:16;;;;;;;13.30;8.10;;;;;;;2.17;100.00;100726.19;4138388;28;20104;-71
2021/12/17 07:57:17;;;;;;;12.88;7.75;;;;;;;2.17;100.00;100721.56;4138174;28;20663;-71
2021/12/17 07:59:17;;;;;;;13.55;7.63;;;;;;;2.12;100.00;100720.72;4138821;28;20334;-71
2021/12/17 08:01:18;;;;;;;14.30;7.90;;;;;;;2.12;100.00;100716.06;4137695;28;20049;-71
2021/12/17 08:03:20;;;;;;;15.10;9.50;;;;;;;2.11;100.00;100711.69;4138285;28;20049;-71
2021/12/17 08:05:20;;;;;;;15.82;10.20;;;;;;;2.11;100.00;100708.16;4138457;28;20057;-71
2021/12/17 08:07:20;;;;;;;16.40;10.38;;;;;;;2.14;100.00;100721.25;4137000;28;20525;-71
2021/12/17 08:09:21;;;;;;;22.15;11.68;;;;;;;2.17;100.00;100716.09;4137352;28;20034;-71
2021/12/17 08:11:22;;;;;;;19.20;10.00;;;;;;;2.22;100.00;100715.28;4138003;28;20348;-71
2021/12/17 08:13:29;;;;;;;21.08;12.60;;;;;;;2.24;100.00;100713.94;4138739;28;20480;-71
2021/12/17 08:15:35;;;;;;;19.20;10.88;;;;;;;2.31;100.00;100719.13;4135380;28;20539;-71
2021/12/17 08:26:41;;;;;;;20.23;10.10;;;;;;;2.54;100.00;100717.81;4137321;28;23458;-70
2021/12/17 08:31:00;;;;;;;15.65;8.55;;;;;;;2.60;100.00;100738.59;4135399;28;20050;-71
2021/12/17 08:33:00;;;;;;;14.57;8.55;;;;;;;2.60;100.00;100737.78;4138226;28;20458;-71
2021/12/17 08:35:01;;;;;;;15.07;9.20;;;;;;;2.63;100.00;100754.47;4137363;28;20432;-71
2021/12/17 08:37:02;;;;;;;15.82;9.82;;;;;;;2.64;100.00;100739.69;4137368;28;20046;-71
2021/12/17 08:39:03;;;;;;;17.63;9.27;;;;;;;2.69;100.00;100745.19;4137003;28;20042;-71
2021/12/17 08:41:04;;;;;;;16.77;9.80;;;;;;;2.71;100.00;100745.72;4137228;28;20042;-71
2021/12/17 08:43:05;;;;;;;15.77;8.88;;;;;;;2.73;100.00;100746.31;4137745;28;20046;-71
2021/12/17 08:45:09;;;;;;;18.38;10.50;;;;;;;2.72;100.00;100739.16;4137852;28;20116;-71
2021/12/17 08:47:10;;;;;;;15.18;8.65;;;;;;;2.73;100.00;100729.03;4136963;28;20535;-71
2021/12/17 08:49:10;;;;;;;14.98;8.40;;;;;;;2.76;100.00;100739.47;4136996;28;20086;-71
2021/12/17 08:51:11;;;;;;;19.88;10.30;;;;;;;2.78;100.00;100727.16;4137842;28;20499;-71
2021/12/17 08:53:11;;;;;;;17.58;9.60;;;;;;;2.83;100.00;100720.06;4136063;28;20137;-71
2021/12/17 08:55:12;;;;;;;19.60;11.13;;;;;;;2.87;100.00;100721.16;4136366;28;20056;-71
2021/12/17 08:57:12;;;;;;;24.75;12.85;;;;;;;2.93;100.00;100728.28;4137162;28;20172;-71
2021/12/17 08:59:16;;;;;;;22.13;12.25;;;;;;;2.97;100.00;100724.69;4136239;28;20442;-71
2021/12/17 09:01:17;;;;;;;17.88;10.70;;;;;;;3.00;100.00;100735.09;4137699;28;20058;-71
2021/12/17 09:03:17;;;;;;;33.03;15.95;;;;;;;3.03;100.00;100737.28;4136618;28;20038;-71
2021/12/17 09:05:18;;;;;;;26.98;12.50;;;;;;;3.06;100.00;100735.91;4136613;28;20042;-71
2021/12/17 09:07:18;;;;;;;22.85;12.02;;;;;;;3.07;100.00;100746.59;4136478;28;20042;-71
2021/12/17 09:09:20;;;;;;;26.42;12.52;;;;;;;3.09;100.00;100733.47;4137133;28;20057;-71
2021/12/17 09:11:23;;;;;;;34.65;15.60;;;;;;;3.16;100.00;100738.66;4135489;28;20419;-71
2021/12/17 09:13:27;;;;;;;24.15;13.75;;;;;;;3.19;100.00;100740.03;4137120;28;20375;-71
2021/12/17 09:15:28;;;;;;;26.33;13.75;;;;;;;3.24;100.00;100738.13;4137367;28;20049;-71
2021/12/17 09:17:29;;;;;;;23.75;13.38;;;;;;;3.25;100.00;100738.94;4136249;28;20053;-71
2021/12/17 09:19:29;;;;;;;22.10;12.63;;;;;;;3.26;100.00;100738.66;4136425;28;20645;-71
2021/12/17 09:21:30;;;;;;;21.83;12.65;;;;;;;3.29;100.00;100745.50;4137368;28;20046;-71
2021/12/17 09:23:30;;;;;;;26.48;13.82;;;;;;;3.34;100.00;100743.56;4137074;28;20330;-71
2021/12/17 09:25:31;;;;;;;22.73;12.23;;;;;;;3.36;100.00;100756.97;4136626;28;20103;-71
2021/12/17 09:27:32;;;;;;;21.77;10.93;;;;;;;3.40;100.00;100746.31;4134359;28;20046;-71
2021/12/17 09:29:32;;;;;;;22.27;13.07;;;;;;;3.46;100.00;100748.75;4137708;28;20124;-72
2021/12/17 09:31:33;;;;;;;21.15;11.75;;;;;;;3.47;100.00;100747.66;4135677;28;20050;-71
2021/12/17 09:33:33;;;;;;;25.88;13.38;;;;;;;3.52;100.00;100753.13;4136608;28;20048;-71
2021/12/17 09:35:33;;;;;;;24.33;12.30;;;;;;;3.52;100.00;100747.66;4137707;28;20046;-71
2021/12/17 09:37:34;;;;;;;20.95;11.50;;;;;;;3.61;100.00;100742.44;4136167;28;20578;-71
2021/12/17 09:39:34;;;;;;;23.42;13.50;;;;;;;3.66;100.00;100726.00;4137184;28;20479;-71
2021/12/17 09:41:36;;;;;;;22.08;11.88;;;;;;;3.70;100.00;100718.06;4134890;28;20073;-71
2021/12/17 09:43:37;;;;;;;26.52;13.07;;;;;;;3.71;100.00;100715.03;4136866;28;20077;-71
2021/12/17 09:45:37;;;;;;;27.13;13.27;;;;;;;3.74;100.00;100722.72;4136823;28;20046;-71
2021/12/17 09:47:39;;;;;;;30.27;13.70;;;;;;;3.78;100.00;100726.53;4136523;28;20049;-71
2021/12/17 09:49:40;;;;;;;50.58;15.02;;;;;;;3.82;100.00;100733.09;4137432;28;20534;-71
2021/12/17 09:51:41;;;;;;;30.52;15.18;;;;;;;3.86;100.00;100731.41;4136030;28;20056;-71
2021/12/17 09:53:41;;;;;;;32.80;17.48;;;;;;;3.90;100.00;100732.53;4137322;28;20111;-71
2021/12/17 09:55:42;;;;;;;25.48;14.55;;;;;;;3.92;100.00;100730.31;4136155;28;20045;-71
2021/12/17 09:57:42;;;;;;;33.22;17.25;;;;;;;3.99;100.00;100730.03;4136532;28;20099;-71
2021/12/17 09:59:43;;;;;;;28.38;14.00;;;;;;;4.02;99.77;100715.75;4136180;28;20050;-71
2021/12/17 10:01:45;;;;;;;26.27;12.88;;;;;;;4.08;99.79;100714.66;4135800;28;20042;-71
2021/12/17 10:03:46;;;;;;;25.30;13.10;;;;;;;4.13;99.80;100725.56;4136735;28;20046;-71
2021/12/17 10:05:46;;;;;;;25.92;13.27;;;;;;;4.09;99.92;100719.03;4136231;28;20522;-71
2021/12/17 10:07:56;;;;;;;26.27;14.32;;;;;;;4.12;99.88;100732.16;4135262;28;20038;-71
2021/12/17 10:09:59;;;;;;;28.38;14.48;;;;;;;4.16;100.00;100737.91;4136112;28;20657;-71
2021/12/17 10:12:04;;;;;;;28.60;14.23;;;;;;;4.22;99.01;100734.88;4136817;28;20130;-71
2021/12/17 10:14:19;;;;;;;27.67;14.73;;;;;;;4.27;99.83;100725.78;4151823;28;20041;-71
2021/12/17 10:16:21;;;;;;;23.27;12.77;;;;;;;4.34;98.62;100729.03;4151804;28;20043;-71
2021/12/17 10:18:31;;;;;;;24.00;13.43;;;;;;;4.39;99.43;100725.47;4151031;28;20045;-71
2021/12/17 10:20:39;;;;;;;25.75;13.07;;;;;;;4.42;99.08;100730.38;4152126;28;20042;-71
2021/12/17 10:22:44;;;;;;;26.73;15.73;;;;;;;4.40;99.57;100722.44;4152926;28;20055;-71
2021/12/17 10:25:06;;;;;;;24.88;13.18;;;;;;;4.50;98.02;100733.34;4152755;28;20041;-71
2021/12/17 10:27:22;;;;;;;29.00;13.65;;;;;;;4.55;97.95;100731.66;4151165;28;20050;-71
2021/12/17 10:29:26;;;;;;;27.92;14.40;;;;;;;4.53;97.69;100734.69;4151243;28;20601;-71
2021/12/17 10:31:29;;;;;;;25.10;12.75;;;;;;;4.60;98.01;100726.16;4151920;28;20046;-71
2021/12/17 10:33:30;;;;;;;28.92;14.90;;;;;;;4.64;97.21;100727.25;4152841;28;20148;-71
2021/12/17 10:35:35;;;;;;;27.05;15.82;;;;;;;4.68;97.98;100736.53;4151508;28;20131;-71
2021/12/17 10:37:54;;;;;;;32.67;16.08;;;;;;;4.74;97.94;100752.66;4150935;28;20049;-71
2021/12/17 10:39:55;;;;;;;29.15;15.27;;;;;;;4.75;98.20;100757.03;4151453;28;20049;-71
2021/12/17 10:41:55;;;;;;;26.77;14.30;;;;;;;4.74;97.04;100746.38;4152116;28;20044;-71
2021/12/17 10:44:06;;;;;;;27.15;12.73;;;;;;;4.76;97.81;100734.00;4151803;28;20053;-71
2021/12/17 10:48:27;;;;;;;22.65;12.30;;;;;;;4.80;98.48;100734.28;4151359;28;20060;-71
2021/12/17 10:50:28;;;;;;;24.77;12.52;;;;;;;4.79;98.69;100725.19;4151859;28;20042;-71
2021/12/17 10:52:40;;;;;;;25.60;12.70;;;;;;;4.88;98.72;100728.19;4152895;28;20048;-71
2021/12/17 10:54:41;;;;;;;29.00;14.10;;;;;;;4.92;97.79;100728.41;4155361;28;20152;-71
2021/12/17 10:56:47;;;;;;;26.23;12.93;;;;;;;4.95;97.49;100714.09;4154367;28;20088;-71
2021/12/17 10:59:04;;;;;;;25.83;13.63;;;;;;;4.98;98.04;100714.38;4153961;28;20082;-71
2021/12/17 11:01:07;;;;;;;26.83;13.18;;;;;;;5.03;96.84;100718.97;4155872;28;20474;-71
2021/12/17 11:03:07;;;;;;;25.20;13.15;;;;;;;5.06;96.05;100704.72;4155537;28;20076;-71
2021/12/17 11:05:12;;;;;;;31.73;15.65;;;;;;;5.05;95.68;100716.78;4155189;28;20045;-71
2021/12/17 11:07:16;;;;;;;29.95;15.35;;;;;;;5.14;95.60;100719.75;4154043;28;20041;-71
2021/12/17 11:09:42;;;;;;;25.30;12.98;;;;;;;5.20;96.20;100718.56;4155161;28;20480;-71
2021/12/17 11:11:43;;;;;;;23.13;12.07;;;;;;;5.26;95.44;100720.16;4155221;28;20572;-71
2021/12/17 11:13:57;;;;;;;23.30;13.15;;;;;;;5.22;95.64;100706.22;4154996;28;20073;-71
2021/12/17 11:15:58;;;;;;;24.95;13.32;;;;;;;5.21;95.97;100717.47;4155629;28;20498;-71
2021/12/17 11:18:03;;;;;;;23.80;12.85;;;;;;;5.24;96.38;100714.16;4153208;28;20041;-71
2021/12/17 11:20:11;;;;;;;26.30;14.82;;;;;;;5.17;96.17;100714.47;4155327;28;20049;-71
2021/12/17 11:22:11;;;;;;;23.80;11.88;;;;;;;5.19;97.05;100719.69;4154516;28;20061;-71
2021/12/17 11:24:13;;;;;;;22.92;12.27;;;;;;;5.17;96.88;100730.13;4155842;28;20368;-71
2021/12/17 11:26:13;;;;;;;20.23;10.80;;;;;;;5.24;96.85;100727.88;4153406;28;20091;-71
2021/12/17 11:28:14;;;;;;;20.85;10.77;;;;;;;5.22;96.76;100730.09;4153922;28;20030;-71
2021/12/17 11:30:18;;;;;;;23.98;11.60;;;;;;;5.21;96.94;100731.19;4154546;28;20037;-71
2021/12/17 11:32:19;;;;;;;24.42;13.25;;;;;;;5.17;97.17;100725.47;4154540;28;20050;-71
2021/12/17 11:34:20;;;;;;;18.98;10.57;;;;;;;5.23;97.40;100731.72;4154854;28;20033;-71
2021/12/17 11:36:21;;;;;;;16.52;9.07;;;;;;;5.28;97.67;100723.44;4155273;28;20549;-71
2021/12/17 11:38:54;;;;;;;15.00;8.15;;;;;;;5.29;97.64;100723.16;4154268;28;20045;-71
2021/12/17 11:41:13;;;;;;;17.77;9.43;;;;;;;5.27;98.11;100724.53;4154030;28;20045;-71
2021/12/17 11:43:36;;;;;;;17.02;8.32;;;;;;;5.27;97.84;100719.06;4154700;28;20081;-71
2021/12/17 11:45:37;;;;;;;15.85;8.43;;;;;;;5.26;98.25;100717.44;4154771;28;20047;-71
2021/12/17 11:47:37;;;;;;;19.92;7.97;;;;;;;5.27;97.70;100719.06;4154309;28;20089;-71
2021/12/17 11:49:45;;;;;;;17.08;9.40;;;;;;;5.28;97.11;100718.75;4154921;28;20081;-71
2021/12/17 11:51:53;;;;;;;16.83;7.45;;;;;;;5.27;96.77;100719.88;4154620;28;20087;-71
2021/12/17 11:54:11;;;;;;;12.82;7.53;;;;;;;5.33;96.48;100706.94;4154511;28;20049;-71
2021/12/17 11:56:11;;;;;;;12.77;7.00;;;;;;;5.31;97.12;100700.91;4153554;28;20738;-71
2021/12/17 11:58:15;;;;;;;13.30;6.85;;;;;;;5.28;97.86;100696.81;4154863;28;20064;-71
2021/12/17 12:00:23;;;;;;;17.60;9.13;;;;;;;5.27;98.21;100705.34;4153799;28;20114;-71
2021/12/17 12:02:24;;;;;;;19.15;9.50;;;;;;;5.19;98.03;100693.06;4153467;28;20060;-71
2021/12/17 12:04:34;;;;;;;20.58;10.02;;;;;;;5.16;98.59;100698.31;4152554;28;20080;-71